Terminal Aerodrome Forecast
Issued by NWS

Home | Current Version | Previous Version | Text Only | Print | Product List | Glossary Off
Versions: 1 2 3 4 5 6 7 8 9 10 11 12 13 14 15

245
FTUS43 KFGF 161138
TAFBJI
TAF
KBJI 161138Z 1612/1712 31005KT P6SM SCT005
      TEMPO 1612/1613 BKN006
     FM170200 23005KT P6SM BKN200=

USA.gov is the U.S. government's official web portal to all federal, state and local government web resources and services.